Time;durP1;ratioP1;P1;durP2;ratioP2;P2;SDS_P1;SDS_P2;PMS_P1;PMS_P2;Temp;Humidity;BMP_temperature;BMP_pressure;BME280_temperature;BME280_humidity;BME280_pressure;Samples;Min_cycle;Max_cycle;Signal;HPM_P1;HPM_P2
2023/08/22 00:01:34;;;;;;;7.65;4.88;;;;;;;20.70;55.74;96598.91;5057043;28;20045;-68
2023/08/22 00:04:02;;;;;;;6.15;5.00;;;;;;;20.64;55.97;96600.25;5056976;28;20056;-68
2023/08/22 00:06:29;;;;;;;6.15;4.75;;;;;;;20.67;56.33;96601.81;5056865;28;20045;-68
2023/08/22 00:08:57;;;;;;;6.70;4.25;;;;;;;20.58;56.27;96598.06;5056980;28;20049;-68
2023/08/22 00:11:24;;;;;;;5.28;4.38;;;;;;;20.58;56.85;96606.03;5056685;28;20130;-68
2023/08/22 00:13:51;;;;;;;6.13;5.00;;;;;;;20.61;56.76;96600.47;5056681;28;20087;-68
2023/08/22 00:16:18;;;;;;;6.00;4.68;;;;;;;20.62;56.45;96604.00;5056544;28;20088;-68
2023/08/22 00:18:46;;;;;;;5.95;4.90;;;;;;;20.61;56.36;96595.16;5056542;28;20045;-68
2023/08/22 00:21:13;;;;;;;9.07;4.78;;;;;;;20.61;56.47;96595.16;5056419;28;20053;-68
2023/08/22 00:23:40;;;;;;;6.30;4.68;;;;;;;20.55;56.37;96595.63;5056762;28;20048;-68
2023/08/22 00:26:08;;;;;;;14.02;5.25;;;;;;;20.53;56.96;96592.28;5056469;28;20045;-68
2023/08/22 00:28:35;;;;;;;6.78;4.55;;;;;;;20.53;56.76;96598.41;5056606;28;20437;-68
2023/08/22 00:31:02;;;;;;;5.35;4.65;;;;;;;20.49;56.63;96599.63;5056369;28;20045;-68
2023/08/22 00:33:29;;;;;;;6.22;5.00;;;;;;;20.41;57.11;96591.41;5056406;28;20045;-68
2023/08/22 00:35:58;;;;;;;6.18;4.63;;;;;;;20.40;57.16;96597.66;5056205;28;20098;-68
2023/08/22 00:38:25;;;;;;;9.38;4.90;;;;;;;20.38;57.41;96587.16;5056286;28;20549;-68
2023/08/22 00:40:53;;;;;;;6.57;5.00;;;;;;;20.35;57.09;96592.75;5056134;28;20051;-68
2023/08/22 00:43:20;;;;;;;10.35;5.07;;;;;;;20.35;57.45;96587.44;5056128;28;20045;-68
2023/08/22 00:45:49;;;;;;;6.22;5.07;;;;;;;20.29;57.92;96596.69;5056222;28;20132;-68
2023/08/22 00:48:16;;;;;;;6.50;5.15;;;;;;;20.20;58.16;96595.59;5056139;28;20483;-68
2023/08/22 00:50:43;;;;;;;6.78;4.57;;;;;;;20.23;57.94;96599.00;5056010;28;20044;-68
2023/08/22 00:53:13;;;;;;;6.03;4.53;;;;;;;20.23;58.12;96597.19;5055862;28;20136;-68
2023/08/22 00:55:40;;;;;;;4.95;4.28;;;;;;;20.28;58.46;96602.97;5055847;28;20049;-68
2023/08/22 00:58:07;;;;;;;6.70;4.65;;;;;;;20.23;58.50;96599.00;5055918;28;20041;-68
2023/08/22 01:00:35;;;;;;;10.40;5.05;;;;;;;20.27;58.69;96595.13;5055818;28;20144;-68
2023/08/22 01:03:03;;;;;;;6.63;4.75;;;;;;;20.27;58.21;96593.31;5055762;28;20045;-68
2023/08/22 01:05:33;;;;;;;7.03;4.88;;;;;;;20.29;58.75;96591.38;5055796;28;20095;-68
2023/08/22 01:08:05;;;;;;;8.38;5.10;;;;;;;20.35;58.84;96598.06;5055925;28;20049;-68
2023/08/22 01:10:38;;;;;;;9.60;5.68;;;;;;;20.37;58.45;96598.75;5055766;28;20044;-68
2023/08/22 01:13:08;;;;;;;11.18;4.97;;;;;;;20.35;58.75;96595.41;5055583;28;20053;-68
2023/08/22 01:15:36;;;;;;;;;;;;;;;20.30;58.83;96597.53;5055920;28;20084;-68
2023/08/22 01:18:04;;;;;;;8.00;5.15;;;;;;;20.28;58.73;96594.16;5055513;28;19927;-68
2023/08/22 01:20:31;;;;;;;7.55;4.75;;;;;;;20.26;58.91;96596.09;5055186;28;20045;-68
2023/08/22 01:23:00;;;;;;;6.90;5.38;;;;;;;20.23;59.27;96597.19;5055328;28;20049;-68
2023/08/22 01:25:28;;;;;;;8.80;5.10;;;;;;;20.11;59.41;96591.00;5055298;28;20136;-68
2023/08/22 01:28:08;;;;;;;7.35;5.30;;;;;;;20.11;59.47;96596.31;5055231;28;20487;-68
2023/08/22 01:30:47;;;;;;;7.28;5.25;;;;;;;20.13;59.54;96593.50;5055310;28;20071;-68
2023/08/22 01:33:21;;;;;;;8.85;5.32;;;;;;;20.14;59.72;96595.22;5055285;28;20160;-68
2023/08/22 01:35:51;;;;;;;9.52;5.20;;;;;;;20.11;60.07;96593.66;5055112;28;20057;-68
2023/08/22 01:38:22;;;;;;;9.48;5.45;;;;;;;20.12;60.05;96597.13;5055178;28;20056;-68
2023/08/22 01:40:49;;;;;;;9.82;5.50;;;;;;;20.03;60.12;96599.53;5055115;28;20056;-68
2023/08/22 01:43:18;;;;;;;6.70;5.50;;;;;;;19.98;60.62;96598.19;5055015;28;20053;-68
2023/08/22 01:45:45;;;;;;;6.82;5.55;;;;;;;19.89;60.92;96602.34;5055037;28;20052;-68
2023/08/22 01:48:13;;;;;;;8.98;5.38;;;;;;;19.87;60.91;96602.44;5054838;28;20045;-68
2023/08/22 01:50:40;;;;;;;6.63;5.68;;;;;;;19.85;61.24;96606.19;5054816;28;20045;-68
2023/08/22 01:53:07;;;;;;;8.32;5.95;;;;;;;19.85;61.32;96606.19;5054791;28;20095;-68
2023/08/22 01:55:35;;;;;;;6.88;6.18;;;;;;;19.67;60.92;96604.81;5054709;28;20049;-68
2023/08/22 01:58:04;;;;;;;10.25;5.78;;;;;;;19.72;61.26;96609.78;5054801;28;20487;-68
2023/08/22 02:00:31;;;;;;;9.38;6.50;;;;;;;19.74;61.35;96607.03;5054743;28;20094;-68
2023/08/22 02:02:58;;;;;;;7.57;5.65;;;;;;;19.68;61.02;96603.84;5054724;28;20051;-68
2023/08/22 02:05:25;;;;;;;8.45;6.45;;;;;;;19.66;61.81;96604.94;5054723;28;20053;-68
2023/08/22 02:07:52;;;;;;;9.73;6.63;;;;;;;19.66;61.27;96612.88;5054459;28;20049;-68
2023/08/22 02:10:19;;;;;;;7.53;6.78;;;;;;;19.73;61.63;96610.59;5054370;28;20491;-68
2023/08/22 02:12:47;;;;;;;7.32;6.28;;;;;;;19.69;61.32;96604.69;5054143;28;20589;-68
2023/08/22 02:15:15;;;;;;;7.40;6.05;;;;;;;19.73;61.66;96607.94;5054104;28;20056;-68
2023/08/22 02:17:42;;;;;;;7.90;5.78;;;;;;;19.70;61.66;96607.25;5054424;28;20045;-68
2023/08/22 02:20:10;;;;;;;8.10;6.15;;;;;;;19.72;61.90;96611.56;5054180;28;20143;-68
2023/08/22 02:22:39;;;;;;;9.35;6.60;;;;;;;19.69;62.24;96612.66;5054524;28;20055;-68
2023/08/22 02:25:08;;;;;;;7.32;6.57;;;;;;;19.67;62.19;96607.47;5054537;28;20410;-68
2023/08/22 02:27:36;;;;;;;6.88;6.18;;;;;;;19.68;62.19;96608.28;5054194;28;20045;-68
2023/08/22 02:30:07;;;;;;;11.27;6.60;;;;;;;19.64;62.19;96605.03;5054387;28;20049;-68
2023/08/22 02:32:34;;;;;;;7.40;6.72;;;;;;;19.63;61.83;96613.09;5054145;28;20052;-69
2023/08/22 02:35:02;;;;;;;7.78;6.50;;;;;;;19.63;62.19;96611.28;5054022;28;20079;-69
2023/08/22 02:37:29;;;;;;;10.43;6.60;;;;;;;19.68;62.79;96609.16;5054009;28;20419;-69
2023/08/22 02:39:56;;;;;;;8.45;6.80;;;;;;;19.64;62.67;96606.84;5053892;28;20080;-69
2023/08/22 02:42:23;;;;;;;7.20;6.40;;;;;;;19.62;62.78;96606.13;5053895;28;20048;-69
2023/08/22 02:44:50;;;;;;;10.50;6.65;;;;;;;19.64;62.36;96601.53;5053777;28;20053;-69
2023/08/22 02:47:19;;;;;;;9.27;7.30;;;;;;;19.69;62.57;96607.34;5053785;28;20053;-69
2023/08/22 02:49:46;;;;;;;9.38;8.15;;;;;;;19.68;62.97;96614.47;5053775;28;20087;-69
2023/08/22 02:52:13;;;;;;;12.38;7.40;;;;;;;19.60;63.39;96613.34;5053798;28;20078;-69
2023/08/22 02:54:40;;;;;;;8.93;8.02;;;;;;;19.57;63.45;96612.59;5053822;28;20048;-69
2023/08/22 02:57:07;;;;;;;12.05;7.63;;;;;;;19.60;63.21;96610.69;5053495;28;20478;-69
2023/08/22 02:59:34;;;;;;;11.32;8.65;;;;;;;19.64;63.44;96617.44;5053622;28;20044;-69
2023/08/22 03:02:03;;;;;;;14.80;9.38;;;;;;;19.64;63.08;96610.34;5053442;28;20052;-69
2023/08/22 03:04:33;;;;;;;11.45;8.73;;;;;;;19.64;63.13;96615.66;5053407;28;20049;-69
2023/08/22 03:07:00;;;;;;;11.25;8.38;;;;;;;19.67;62.89;96619.88;5053457;28;20106;-69
2023/08/22 03:09:29;;;;;;;14.55;9.02;;;;;;;19.72;63.43;96617.75;5053508;28;20060;-69
2023/08/22 03:11:56;;;;;;;11.45;9.77;;;;;;;19.70;63.04;96617.00;5053440;28;20049;-69
2023/08/22 03:14:23;;;;;;;12.32;9.15;;;;;;;19.70;63.43;96611.69;5053212;28;20139;-69
2023/08/22 03:16:50;;;;;;;15.77;10.25;;;;;;;19.68;63.03;96618.91;5053240;28;20052;-69
2023/08/22 03:19:17;;;;;;;16.45;10.05;;;;;;;19.68;63.02;96619.75;5052878;28;20095;-69
2023/08/22 03:21:46;;;;;;;12.93;10.30;;;;;;;19.61;63.37;96618.53;5053200;28;20049;-69
2023/08/22 03:24:13;;;;;;;12.90;9.93;;;;;;;19.61;63.17;96625.63;5053032;28;20045;-69
2023/08/22 03:26:40;;;;;;;14.75;11.23;;;;;;;19.64;63.54;96622.75;5052382;28;20414;-69
2023/08/22 03:29:07;;;;;;;18.67;10.88;;;;;;;19.63;63.25;96624.53;5053211;28;20045;-69
2023/08/22 03:31:34;;;;;;;16.80;10.48;;;;;;;19.67;63.50;96630.50;5053106;28;20053;-69
2023/08/22 03:34:01;;;;;;;21.40;11.07;;;;;;;19.63;63.38;96631.69;5053183;28;20103;-69
2023/08/22 03:36:29;;;;;;;20.98;11.15;;;;;;;19.65;63.31;96635.06;5052897;28;20132;-69
2023/08/22 03:38:57;;;;;;;13.68;10.02;;;;;;;19.64;63.31;96630.72;5053214;28;20152;-69
2023/08/22 03:41:24;;;;;;;13.98;10.18;;;;;;;19.65;63.49;96635.06;5053020;28;20128;-69
2023/08/22 03:43:51;;;;;;;21.45;11.02;;;;;;;19.66;63.51;96629.63;5052850;28;20041;-69
2023/08/22 03:46:18;;;;;;;16.70;10.73;;;;;;;19.71;63.72;96639.91;5052866;28;20085;-69
2023/08/22 03:48:45;;;;;;;20.45;11.00;;;;;;;19.74;63.68;96634.38;5052873;28;20045;-69
2023/08/22 03:51:12;;;;;;;14.65;10.25;;;;;;;19.76;63.84;96631.59;5052982;28;20053;-69
2023/08/22 03:53:39;;;;;;;13.50;10.27;;;;;;;19.78;64.08;96632.34;5052876;28;20510;-69
2023/08/22 03:56:08;;;;;;;16.67;10.23;;;;;;;19.78;63.95;96632.34;5052928;28;20049;-69
2023/08/22 03:58:35;;;;;;;12.93;10.32;;;;;;;19.83;63.92;96633.69;5052993;28;20049;-69
2023/08/22 04:01:03;;;;;;;15.18;10.55;;;;;;;19.93;63.92;96627.72;5052919;28;20045;-69
2023/08/22 04:03:31;;;;;;;12.27;9.00;;;;;;;20.01;63.54;96635.09;5052761;28;20060;-69
2023/08/22 04:05:59;;;;;;;15.73;9.52;;;;;;;20.07;63.23;96634.66;5052749;28;20052;-69
2023/08/22 04:08:26;;;;;;;13.00;8.98;;;;;;;20.23;63.46;96629.06;5052728;28;20045;-69
2023/08/22 04:10:54;;;;;;;13.65;9.25;;;;;;;20.48;63.07;96631.63;5052790;28;20123;-69
2023/08/22 04:13:22;;;;;;;12.73;8.73;;;;;;;20.75;62.10;96630.44;5052684;28;20045;-69
2023/08/22 04:15:49;;;;;;;9.80;7.63;;;;;;;21.01;61.47;96627.59;5052591;28;20462;-69
2023/08/22 04:18:17;;;;;;;10.60;7.63;;;;;;;21.36;60.36;96631.88;5052703;28;20136;-69
2023/08/22 04:20:44;;;;;;;13.35;8.07;;;;;;;21.73;59.43;96629.84;5052377;28;20049;-69
2023/08/22 04:23:11;;;;;;;14.73;7.40;;;;;;;22.04;58.43;96630.00;5052547;28;20076;-69
2023/08/22 04:25:38;;;;;;;14.70;6.97;;;;;;;22.37;57.25;96622.81;5052578;28;20052;-69
2023/08/22 04:28:06;;;;;;;16.40;7.40;;;;;;;22.69;56.36;96634.34;5052629;28;20559;-69
2023/08/22 04:30:35;;;;;;;13.27;6.65;;;;;;;22.95;55.41;96639.25;5052430;28;20049;-69
2023/08/22 04:33:02;;;;;;;10.13;6.25;;;;;;;23.16;54.40;96639.22;5052578;28;20055;-69
2023/08/22 04:35:30;;;;;;;9.00;6.88;;;;;;;23.41;54.09;96638.88;5052376;28;20414;-69
2023/08/22 04:37:57;;;;;;;9.00;5.97;;;;;;;23.73;53.32;96644.00;5055687;28;20048;-70
2023/08/22 04:40:24;;;;;;;9.02;6.03;;;;;;;24.05;51.97;96646.53;5056169;28;20087;-69
2023/08/22 04:42:51;;;;;;;8.48;6.10;;;;;;;24.43;51.08;96649.34;5056154;28;20041;-69
2023/08/22 04:45:18;;;;;;;10.15;6.30;;;;;;;24.84;50.27;96651.78;5056119;28;20136;-69
2023/08/22 04:47:47;;;;;;;10.45;5.82;;;;;;;25.29;49.65;96654.72;5056315;28;20061;-69
2023/08/22 04:50:14;;;;;;;7.35;5.80;;;;;;;25.73;48.41;96654.91;5056001;28;20132;-69
2023/08/22 04:52:41;;;;;;;6.13;5.30;;;;;;;26.17;46.31;96657.81;5056164;28;20055;-69
2023/08/22 04:55:09;;;;;;;10.38;5.18;;;;;;;26.55;45.71;96658.47;5056032;28;20077;-69
2023/08/22 04:57:36;;;;;;;9.43;5.22;;;;;;;26.95;44.12;96652.69;5055824;28;20140;-69
2023/08/22 05:00:04;;;;;;;11.52;5.55;;;;;;;27.30;42.66;96663.47;5055775;28;20041;-69
2023/08/22 05:02:31;;;;;;;8.65;4.70;;;;;;;27.55;41.44;96653.66;5055781;28;20044;-69
2023/08/22 05:05:00;;;;;;;7.25;4.80;;;;;;;27.83;40.76;96668.69;5055815;28;20064;-69
2023/08/22 05:07:27;;;;;;;12.30;5.10;;;;;;;28.09;40.64;96665.88;5055653;28;20064;-69
2023/08/22 05:09:54;;;;;;;10.95;5.45;;;;;;;28.40;39.56;96660.88;5055616;28;20041;-67
2023/08/22 05:12:21;;;;;;;10.23;5.03;;;;;;;28.60;39.09;96659.50;5055814;28;20055;-69
2023/08/22 05:14:49;;;;;;;9.60;4.95;;;;;;;28.76;38.57;96661.34;5055551;28;20079;-69
2023/08/22 05:17:16;;;;;;;8.90;5.40;;;;;;;28.89;39.21;96665.34;5055427;28;20049;-69
2023/08/22 05:19:43;;;;;;;11.80;4.63;;;;;;;29.12;37.78;96664.66;5055403;28;20081;-69
2023/08/22 05:22:11;;;;;;;10.65;5.30;;;;;;;29.27;37.30;96659.38;5055399;28;20077;-69
2023/08/22 05:24:38;;;;;;;8.80;4.40;;;;;;;29.46;37.48;96655.41;5055562;28;20521;-69
2023/08/22 05:27:05;;;;;;;9.40;5.05;;;;;;;29.62;36.79;96667.16;5055352;28;20072;-68
2023/08/22 05:29:33;;;;;;;9.90;4.90;;;;;;;29.74;36.70;96656.84;5055267;28;20049;-69
2023/08/22 05:32:00;;;;;;;7.20;4.63;;;;;;;29.93;36.28;96658.22;5055206;28;20049;-69
2023/08/22 05:34:27;;;;;;;8.55;4.40;;;;;;;30.21;35.82;96655.00;5055087;28;20045;-69
2023/08/22 05:36:54;;;;;;;8.13;5.07;;;;;;;30.35;35.38;96666.03;5055043;28;20053;-69
2023/08/22 05:39:22;;;;;;;10.43;4.82;;;;;;;30.59;35.16;96666.84;5055067;28;20128;-69
2023/08/22 05:41:49;;;;;;;4.97;3.95;;;;;;;30.66;34.85;96653.47;5055017;28;20568;-69
2023/08/22 05:44:17;;;;;;;7.00;4.47;;;;;;;30.77;34.55;96661.97;5055222;28;20071;-69
2023/08/22 05:46:44;;;;;;;5.93;4.57;;;;;;;30.93;34.64;96668.22;5055116;28;20138;-69
2023/08/22 05:49:11;;;;;;;8.57;4.38;;;;;;;30.85;34.64;96649.41;5054005;28;20041;-69
2023/08/22 05:51:38;;;;;;;9.85;4.25;;;;;;;31.06;34.16;96654.06;5054946;28;20059;-69
2023/08/22 05:54:06;;;;;;;8.18;4.80;;;;;;;31.21;34.17;96662.16;5054788;28;20045;-69
2023/08/22 05:56:34;;;;;;;10.10;4.50;;;;;;;31.47;33.81;96654.63;5054707;28;20114;-68
2023/08/22 05:59:01;;;;;;;11.05;4.95;;;;;;;31.50;33.11;96648.84;5054725;28;20068;-69
2023/08/22 06:01:29;;;;;;;7.15;4.43;;;;;;;31.52;34.24;96663.00;5054677;28;20533;-69
2023/08/22 06:03:56;;;;;;;9.65;4.78;;;;;;;31.49;32.75;96658.81;5054662;28;20052;-68
2023/08/22 06:06:23;;;;;;;8.10;4.75;;;;;;;31.56;33.72;96658.03;5054471;28;20057;-68
2023/08/22 06:08:50;;;;;;;5.97;4.22;;;;;;;31.76;33.06;96659.09;5054525;28;20045;-68
2023/08/22 06:11:17;;;;;;;5.88;4.53;;;;;;;31.72;32.35;96655.13;5054609;28;20388;-68
2023/08/22 06:13:47;;;;;;;5.53;4.15;;;;;;;31.84;32.57;96660.03;5054514;28;20045;-68
2023/08/22 06:16:14;;;;;;;8.40;4.70;;;;;;;32.05;32.82;96666.53;5054265;28;20140;-68
2023/08/22 06:18:41;;;;;;;8.40;4.45;;;;;;;32.30;31.68;96668.84;5054326;28;20049;-68
2023/08/22 06:21:08;;;;;;;10.55;4.18;;;;;;;32.45;31.88;96668.75;5054136;28;20057;-68
2023/08/22 06:23:35;;;;;;;10.25;4.05;;;;;;;32.71;31.54;96662.75;5054296;28;20103;-68
2023/08/22 06:26:02;;;;;;;8.52;4.75;;;;;;;33.03;31.16;96670.47;5054353;28;20099;-68
2023/08/22 06:28:29;;;;;;;10.68;4.10;;;;;;;33.24;29.93;96674.16;5054132;28;20057;-68
2023/08/22 06:31:03;;;;;;;11.43;4.82;;;;;;;33.21;30.22;96671.84;5054177;28;20376;-68
2023/08/22 06:33:30;;;;;;;11.07;4.63;;;;;;;33.47;29.76;96673.03;5054056;28;20102;-68
2023/08/22 06:35:57;;;;;;;5.75;4.22;;;;;;;33.61;30.07;96674.78;5053968;28;20447;-68
2023/08/22 06:38:25;;;;;;;5.20;4.15;;;;;;;33.85;29.42;96669.84;5054156;28;20499;-68
2023/08/22 06:40:52;;;;;;;9.02;4.45;;;;;;;34.05;29.00;96660.91;5053853;28;20045;-68
2023/08/22 06:43:22;;;;;;;5.45;4.15;;;;;;;34.10;28.03;96668.44;5053964;28;20135;-68
2023/08/22 06:45:49;;;;;;;11.47;4.87;;;;;;;34.22;28.37;96663.28;5053863;28;20041;-68
2023/08/22 06:48:18;;;;;;;7.53;4.22;;;;;;;34.12;28.03;96664.50;5053938;28;20044;-68
2023/08/22 06:50:45;;;;;;;12.77;5.07;;;;;;;34.10;28.16;96665.72;5053762;28;20057;-68
2023/08/22 06:53:12;;;;;;;6.15;4.35;;;;;;;34.07;28.48;96668.84;5053623;28;20084;-68
2023/08/22 06:55:41;;;;;;;10.75;4.80;;;;;;;34.15;28.69;96665.97;5053649;28;20421;-68
2023/08/22 06:58:09;;;;;;;8.77;4.00;;;;;;;34.43;28.24;96673.06;5053567;28;20053;-68
2023/08/22 07:00:36;;;;;;;8.60;3.95;;;;;;;34.50;28.48;96679.38;5053687;28;20479;-68
2023/08/22 07:03:05;;;;;;;7.60;4.50;;;;;;;34.53;27.88;96672.69;5053742;28;20056;-68
2023/08/22 07:05:36;;;;;;;4.40;4.00;;;;;;;34.61;27.57;96679.78;5053824;28;20049;-68
2023/08/22 07:08:03;;;;;;;4.93;4.13;;;;;;;34.47;27.70;96674.34;5053392;28;20051;-68
2023/08/22 07:10:30;;;;;;;11.05;4.45;;;;;;;34.36;28.02;96670.38;5053551;28;20095;-68
2023/08/22 07:12:58;;;;;;;6.32;4.15;;;;;;;34.40;28.45;96682.47;5053232;28;20513;-68
2023/08/22 07:15:25;;;;;;;11.63;4.60;;;;;;;34.22;28.67;96674.94;5053041;28;20051;-68
2023/08/22 07:17:53;;;;;;;9.30;4.22;;;;;;;34.23;28.40;96664.94;5053192;28;20111;-68
2023/08/22 07:20:20;;;;;;;9.23;4.60;;;;;;;34.41;28.12;96664.31;5053285;28;20055;-68
2023/08/22 07:22:49;;;;;;;10.25;4.50;;;;;;;34.41;28.01;96670.56;5053246;28;20513;-68
2023/08/22 07:25:17;;;;;;;9.82;4.10;;;;;;;34.44;28.70;96663.91;5053201;28;20102;-68
2023/08/22 07:27:45;;;;;;;9.45;4.45;;;;;;;34.18;28.01;96651.97;5053193;28;20460;-68
2023/08/22 07:30:13;;;;;;;6.13;4.32;;;;;;;34.12;28.46;96659.09;5053111;28;20467;-68
2023/08/22 07:32:41;;;;;;;14.25;4.10;;;;;;;34.34;28.16;96664.31;5053068;28;20533;-68
2023/08/22 07:35:09;;;;;;;9.88;4.20;;;;;;;34.52;27.92;96666.41;5053008;28;20094;-68
2023/08/22 07:37:36;;;;;;;6.53;4.30;;;;;;;34.40;28.07;96662.66;5052855;28;20136;-68
2023/08/22 07:40:06;;;;;;;6.00;4.53;;;;;;;34.24;28.03;96664.72;5053168;28;20452;-68
2023/08/22 07:42:35;;;;;;;10.27;4.53;;;;;;;34.42;28.97;96668.69;5053074;28;20048;-68
2023/08/22 07:45:03;;;;;;;5.63;4.25;;;;;;;34.66;28.36;96666.44;5052885;28;20407;-68
2023/08/22 07:47:30;;;;;;;8.30;4.72;;;;;;;34.81;28.01;96662.66;5053015;28;20049;-68
2023/08/22 07:49:58;;;;;;;14.65;4.85;;;;;;;35.08;27.57;96668.03;5053260;28;20056;-68
2023/08/22 07:52:25;;;;;;;9.65;5.30;;;;;;;35.15;27.73;96661.56;5052841;28;20045;-68
2023/08/22 07:54:52;;;;;;;8.07;4.68;;;;;;;35.34;27.83;96661.75;5052850;28;20049;-68
2023/08/22 07:57:21;;;;;;;9.32;4.85;;;;;;;35.78;27.87;96662.00;5052769;28;20060;-69
2023/08/22 07:59:49;;;;;;;11.82;5.03;;;;;;;35.84;26.89;96665.72;5052721;28;20381;-69
2023/08/22 08:02:16;;;;;;;8.40;4.57;;;;;;;35.96;26.78;96667.78;5052714;28;20048;-69
2023/08/22 08:04:43;;;;;;;9.05;4.53;;;;;;;35.61;27.16;96661.63;5052721;28;20123;-68
2023/08/22 08:07:11;;;;;;;11.00;4.55;;;;;;;35.66;27.05;96671.84;5052659;28;20045;-68
2023/08/22 08:09:38;;;;;;;7.40;4.75;;;;;;;35.26;27.10;96670.13;5052781;28;20057;-69
2023/08/22 08:12:05;;;;;;;9.52;4.68;;;;;;;35.50;27.51;96665.88;5054610;28;20087;-68
2023/08/22 08:14:34;;;;;;;16.08;4.85;;;;;;;35.79;27.09;96666.38;5056651;28;20045;-68
2023/08/22 08:17:01;;;;;;;8.93;4.90;;;;;;;35.92;26.64;96670.91;5056579;28;20572;-69
2023/08/22 08:19:28;;;;;;;8.65;5.13;;;;;;;35.63;26.87;96661.41;5056351;28;20049;-69
2023/08/22 08:21:56;;;;;;;11.98;4.90;;;;;;;35.37;27.00;96664.03;5056673;28;20131;-68
2023/08/22 08:24:23;;;;;;;11.75;5.05;;;;;;;35.36;27.43;96653.38;5056528;28;20102;-68
2023/08/22 08:26:50;;;;;;;9.57;4.80;;;;;;;35.42;27.40;96658.78;5056472;28;20446;-69
2023/08/22 08:29:17;;;;;;;8.50;4.93;;;;;;;35.66;27.84;96659.09;5056309;28;20041;-68
2023/08/22 08:31:47;;;;;;;7.40;5.05;;;;;;;35.92;26.90;96673.66;5056388;28;20081;-68
2023/08/22 08:34:14;;;;;;;9.43;4.78;;;;;;;35.60;25.76;96668.09;5056352;28;20082;-68
2023/08/22 08:36:41;;;;;;;8.77;4.95;;;;;;;35.42;26.21;96664.22;5056203;28;20041;-68
2023/08/22 08:39:08;;;;;;;10.90;5.50;;;;;;;35.33;26.49;96660.06;5056240;28;20057;-68
2023/08/22 08:41:38;;;;;;;8.70;4.90;;;;;;;35.49;26.73;96656.03;5056267;28;20075;-68
2023/08/22 08:44:08;;;;;;;8.85;4.70;;;;;;;35.88;26.35;96658.78;5056222;28;20048;-68
2023/08/22 08:46:36;;;;;;;15.27;5.13;;;;;;;36.03;26.63;96658.50;5056643;28;20136;-68
2023/08/22 08:49:06;;;;;;;11.23;4.95;;;;;;;35.89;26.92;96667.78;5056201;28;20052;-68
2023/08/22 08:51:35;;;;;;;11.15;4.80;;;;;;;35.34;27.03;96663.63;5056039;28;20045;-68
2023/08/22 08:54:03;;;;;;;9.77;4.88;;;;;;;35.14;27.62;96659.88;5056294;28;20081;-68
2023/08/22 08:56:30;;;;;;;11.30;5.57;;;;;;;35.40;27.29;96666.28;5055910;28;20048;-68
2023/08/22 08:58:57;;;;;;;12.80;5.60;;;;;;;35.60;26.36;96664.56;5055850;28;20052;-68
2023/08/22 09:01:27;;;;;;;9.88;4.82;;;;;;;35.36;27.17;96664.25;5055852;28;20048;-68
2023/08/22 09:03:54;;;;;;;10.25;4.93;;;;;;;35.35;27.64;96655.25;5055654;28;20103;-68
2023/08/22 09:06:22;;;;;;;7.45;4.88;;;;;;;35.58;27.04;96659.34;5055816;28;20049;-68
2023/08/22 09:09:04;;;;;;;6.97;4.57;;;;;;;35.74;24.89;96655.31;5055946;28;20045;-68
2023/08/22 09:11:31;;;;;;;10.18;4.97;;;;;;;35.57;24.60;96654.94;5055759;28;20056;-68
2023/08/22 09:13:59;;;;;;;9.32;4.60;;;;;;;35.62;24.93;96644.25;5055697;28;20055;-68
2023/08/22 09:16:26;;;;;;;11.75;5.30;;;;;;;35.59;25.29;96641.97;5055635;28;20136;-68
2023/08/22 09:18:58;;;;;;;8.07;4.80;;;;;;;35.67;24.40;96643.63;5055405;28;20574;-68
2023/08/22 09:21:26;;;;;;;6.72;4.30;;;;;;;35.26;25.18;96649.22;5055266;28;20044;-68
2023/08/22 09:23:53;;;;;;;9.52;5.18;;;;;;;34.88;24.44;96641.78;5054283;28;20049;-68
2023/08/22 09:26:23;;;;;;;8.48;4.18;;;;;;;34.76;26.21;96645.13;5055337;28;20088;-68
2023/08/22 09:28:50;;;;;;;9.95;4.93;;;;;;;35.02;25.61;96628.97;5055342;28;20142;-68
2023/08/22 09:31:24;;;;;;;8.13;4.57;;;;;;;35.49;25.16;96628.03;5055227;28;20120;-68
2023/08/22 09:33:52;;;;;;;11.65;4.70;;;;;;;35.73;25.17;96618.31;5055115;28;20084;-68
2023/08/22 09:36:20;;;;;;;11.63;5.50;;;;;;;36.06;25.28;96621.88;5055157;28;20099;-68
2023/08/22 09:38:55;;;;;;;11.52;4.97;;;;;;;36.23;25.08;96621.38;5055133;28;20419;-69
2023/08/22 09:41:24;;;;;;;9.13;5.30;;;;;;;35.98;26.51;96625.69;5055068;28;20136;-68
2023/08/22 09:43:54;;;;;;;22.25;4.85;;;;;;;35.73;26.43;96621.03;5055190;28;20049;-68
2023/08/22 09:46:22;;;;;;;8.98;4.70;;;;;;;35.46;25.78;96615.69;5055017;28;20044;-68
2023/08/22 09:48:50;;;;;;;6.68;4.78;;;;;;;34.84;25.94;96629.66;5054997;28;20041;-68
2023/08/22 09:51:19;;;;;;;9.63;4.70;;;;;;;34.43;26.74;96624.22;5055012;28;20049;-68
2023/08/22 09:53:50;;;;;;;7.73;5.37;;;;;;;34.44;26.59;96620.50;5054888;28;20057;-68
2023/08/22 09:56:20;;;;;;;7.63;4.90;;;;;;;34.40;27.31;96620.06;5054881;28;20310;-68
2023/08/22 09:58:47;;;;;;;8.20;5.28;;;;;;;34.07;29.66;96622.75;5054656;28;20558;-68
2023/08/22 10:01:16;;;;;;;9.13;4.80;;;;;;;33.82;29.93;96624.16;5054739;28;20053;-68
2023/08/22 10:03:45;;;;;;;8.23;5.03;;;;;;;33.68;29.81;96623.31;5054791;28;20078;-68
2023/08/22 10:06:13;;;;;;;9.13;4.68;;;;;;;33.31;29.97;96620.00;5054659;28;20041;-68
2023/08/22 10:08:42;;;;;;;14.60;5.68;;;;;;;33.08;30.45;96618.44;5054953;28;20053;-68
2023/08/22 10:11:11;;;;;;;7.38;4.68;;;;;;;32.87;30.46;96633.72;5054583;28;20041;-68
2023/08/22 10:13:41;;;;;;;9.07;5.43;;;;;;;32.76;31.59;96633.22;5054499;28;20052;-68
2023/08/22 10:16:09;;;;;;;6.97;5.18;;;;;;;32.82;32.01;96630.75;5054603;28;20045;-68
2023/08/22 10:18:36;;;;;;;5.97;4.57;;;;;;;32.87;31.28;96631.81;5054366;28;20120;-68
2023/08/22 10:21:04;;;;;;;9.45;5.07;;;;;;;32.88;31.17;96629.97;5054356;28;20095;-68
2023/08/22 10:23:55;;;;;;;7.35;4.50;;;;;;;32.87;30.83;96622.88;5054327;28;20045;-68
2023/08/22 10:26:23;;;;;;;8.23;5.22;;;;;;;32.97;31.83;96633.34;5050794;28;20134;-67
2023/08/22 10:29:16;;;;;;;10.52;5.13;;;;;;;32.99;30.43;96620.44;5054197;28;20051;-68
2023/08/22 10:32:18;;;;;;;9.55;5.10;;;;;;;32.98;30.76;96621.47;5054191;28;20049;-68
2023/08/22 10:35:21;;;;;;;7.53;4.75;;;;;;;32.96;31.42;96626.25;5053768;28;20051;-68
2023/08/22 10:37:50;;;;;;;14.27;4.97;;;;;;;33.05;30.66;96618.84;5053899;28;20056;-68
2023/08/22 10:40:28;;;;;;;8.90;5.30;;;;;;;33.03;29.95;96625.28;5054031;28;20045;-68
2023/08/22 10:43:13;;;;;;;6.72;4.85;;;;;;;32.75;30.47;96620.69;5053967;28;20048;-68
2023/08/22 10:45:50;;;;;;;6.82;5.00;;;;;;;32.72;30.25;96615.69;5053840;28;20453;-68
2023/08/22 10:48:18;;;;;;;7.80;5.22;;;;;;;32.75;30.87;96607.16;5053819;28;20124;-68
2023/08/22 10:50:47;;;;;;;10.18;5.05;;;;;;;32.92;30.93;96614.16;5053765;28;20110;-68
2023/08/22 10:53:20;;;;;;;11.68;5.40;;;;;;;33.09;30.62;96609.25;5053745;28;20491;-68
2023/08/22 10:55:48;;;;;;;9.82;5.30;;;;;;;33.21;29.98;96604.09;5053848;28;20053;-68
2023/08/22 10:58:38;;;;;;;8.75;5.10;;;;;;;33.23;30.61;96608.28;5053734;28;20491;-68
2023/08/22 11:01:08;;;;;;;8.05;5.20;;;;;;;33.30;30.87;96607.47;5053643;28;20051;-68
2023/08/22 11:03:35;;;;;;;7.05;4.72;;;;;;;33.39;30.02;96600.84;5053610;28;20045;-68
2023/08/22 11:06:11;;;;;;;5.72;5.03;;;;;;;33.41;30.80;96593.38;5053543;28;20051;-68
2023/08/22 11:08:39;;;;;;;6.30;5.05;;;;;;;33.33;30.39;96601.66;5053479;28;20041;-68
2023/08/22 11:11:07;;;;;;;6.20;4.80;;;;;;;33.10;29.34;96592.81;5053341;28;20081;-68
2023/08/22 11:13:38;;;;;;;8.38;5.15;;;;;;;32.99;30.73;96599.59;5053372;28;20107;-68
2023/08/22 11:16:11;;;;;;;13.77;4.78;;;;;;;32.90;30.18;96606.22;5053440;28;20124;-68
2023/08/22 11:18:39;;;;;;;8.30;4.85;;;;;;;32.82;31.18;96596.41;5053354;28;20126;-68
2023/08/22 11:21:07;;;;;;;8.32;4.70;;;;;;;32.86;30.44;96592.25;5052923;28;20099;-68
2023/08/22 11:23:36;;;;;;;7.00;4.97;;;;;;;32.87;30.82;96593.09;5053302;28;20049;-68
2023/08/22 11:26:04;;;;;;;9.38;5.15;;;;;;;32.76;30.44;96594.47;5053219;28;20049;-68
2023/08/22 11:28:33;;;;;;;10.20;4.82;;;;;;;32.82;30.54;96592.84;5053071;28;20529;-68
2023/08/22 11:31:00;;;;;;;11.10;4.90;;;;;;;33.10;30.28;96587.41;5053155;28;20095;-68
2023/08/22 11:33:47;;;;;;;9.02;5.05;;;;;;;33.56;29.90;96582.38;5053032;28;20091;-68
2023/08/22 11:36:15;;;;;;;8.38;4.65;;;;;;;34.07;29.20;96588.28;5053101;28;20044;-68